Time;durP1;ratioP1;P1;durP2;ratioP2;P2;SDS_P1;SDS_P2;PMS_P1;PMS_P2;Temp;Humidity;BMP_temperature;BMP_pressure;BME280_temperature;BME280_humidity;BME280_pressure;Samples;Min_cycle;Max_cycle;Signal;HPM_P1;HPM_P2
2022/03/09 00:00:27;;;;;;;6.40;3.30;;;-5.70;69.70;;;;;;4988522;28;20045;-73
2022/03/09 00:02:56;;;;;;;9.05;3.55;;;-5.70;69.40;;;;;;4995538;28;20515;-73
2022/03/09 00:05:24;;;;;;;7.00;2.90;;;-5.80;69.70;;;;;;4989851;28;20101;-72
2022/03/09 00:07:51;;;;;;;9.60;3.35;;;-5.80;69.50;;;;;;4973905;28;20140;-72
2022/03/09 00:10:18;;;;;;;5.70;3.25;;;-5.80;70.10;;;;;;4972571;28;20035;-71
2022/03/09 00:12:46;;;;;;;9.80;3.28;;;-5.80;72.20;;;;;;4989489;28;20050;-72
2022/03/09 00:15:13;;;;;;;7.15;3.35;;;-5.70;71.60;;;;;;4989671;28;20081;-72
2022/03/09 00:17:40;;;;;;;7.22;3.80;;;-5.70;70.30;;;;;;4990210;28;20476;-72
2022/03/09 00:20:12;;;;;;;10.00;4.10;;;-5.70;71.30;;;;;;4990158;28;20049;-72
2022/03/09 00:22:39;;;;;;;13.40;3.70;;;-5.70;71.30;;;;;;4987274;28;20058;-72
2022/03/09 00:25:07;;;;;;;7.20;3.30;;;-5.70;71.30;;;;;;4988746;28;20509;-72
2022/03/09 00:27:34;;;;;;;7.65;2.88;;;-5.70;72.50;;;;;;4991418;28;20054;-72
2022/03/09 00:30:03;;;;;;;8.55;3.42;;;-5.60;72.40;;;;;;4997223;28;20065;-72
2022/03/09 00:32:30;;;;;;;14.38;3.45;;;-5.50;72.60;;;;;;4987410;28;20042;-72
2022/03/09 00:34:58;;;;;;;8.20;2.97;;;-5.50;73.30;;;;;;4990669;28;20129;-72
2022/03/09 00:37:26;;;;;;;11.52;3.47;;;-5.50;73.10;;;;;;4987559;28;20125;-72
2022/03/09 00:39:54;;;;;;;12.95;3.70;;;-5.50;73.00;;;;;;5002770;28;20052;-73
2022/03/09 00:42:21;;;;;;;10.85;3.72;;;-5.50;71.60;;;;;;4972128;28;20129;-72
2022/03/09 00:44:49;;;;;;;11.43;4.32;;;-5.50;71.10;;;;;;4991101;28;20078;-72
2022/03/09 00:47:16;;;;;;;21.10;4.82;;;-5.60;71.70;;;;;;4989906;28;20053;-72
2022/03/09 00:49:43;;;;;;;9.27;4.30;;;-5.50;73.80;;;;;;4989121;28;20554;-72
2022/03/09 00:52:11;;;;;;;10.32;5.00;;;-5.50;72.90;;;;;;4971902;28;20502;-72
2022/03/09 00:54:40;;;;;;;15.63;3.88;;;-5.50;73.10;;;;;;4990814;28;20054;-71
2022/03/09 00:57:07;;;;;;;10.20;3.30;;;-5.50;73.70;;;;;;4994830;28;20112;-73
2022/03/09 00:59:35;;;;;;;11.38;3.78;;;-5.50;77.60;;;;;;4997159;28;20145;-70
2022/03/09 01:02:02;;;;;;;13.18;3.28;;;-5.50;77.30;;;;;;4990875;28;20177;-70
2022/03/09 01:04:30;;;;;;;9.88;3.88;;;-5.50;77.30;;;;;;4990720;28;20050;-71
2022/03/09 01:06:57;;;;;;;4.55;2.47;;;-5.60;76.90;;;;;;4992546;28;20050;-71
2022/03/09 01:09:24;;;;;;;10.80;2.47;;;-5.60;75.70;;;;;;4989221;28;20064;-71
2022/03/09 01:11:53;;;;;;;13.48;2.42;;;-5.70;74.80;;;;;;4994061;28;20153;-70
2022/03/09 01:14:20;;;;;;;16.30;3.40;;;-5.70;74.60;;;;;;4992099;28;20138;-71
2022/03/09 01:16:48;;;;;;;11.88;3.08;;;-5.80;74.30;;;;;;4993540;28;20056;-71
2022/03/09 01:19:16;;;;;;;10.77;2.55;;;-5.80;75.20;;;;;;4993019;28;20058;-72
2022/03/09 01:21:44;;;;;;;10.40;2.50;;;-5.80;76.00;;;;;;4993126;28;20510;-71
2022/03/09 01:24:12;;;;;;;5.53;1.90;;;-5.90;74.80;;;;;;4959105;28;20506;-72
2022/03/09 01:26:39;;;;;;;4.60;2.28;;;-5.90;73.40;;;;;;5000338;28;20062;-72
2022/03/09 01:29:09;;;;;;;4.05;2.30;;;-5.90;75.00;;;;;;4994191;28;20054;-71
2022/03/09 01:31:37;;;;;;;5.00;2.08;;;-5.90;74.40;;;;;;4992776;28;20069;-72
2022/03/09 01:34:05;;;;;;;4.30;2.20;;;-5.90;74.30;;;;;;4995122;28;20118;-73
2022/03/09 01:36:33;;;;;;;4.55;2.40;;;-5.90;73.90;;;;;;4992396;28;20054;-71
2022/03/09 01:39:00;;;;;;;4.47;2.03;;;-5.90;73.80;;;;;;4992304;28;20060;-72
2022/03/09 01:41:27;;;;;;;5.90;2.22;;;-5.90;73.80;;;;;;4992866;28;20423;-71
2022/03/09 01:44:11;;;;;;;8.55;2.10;;;-6.00;70.60;;;;;;4983690;28;20050;-71
2022/03/09 01:46:40;;;;;;;3.60;2.05;;;-6.10;70.70;;;;;;4992478;28;20086;-72
2022/03/09 01:49:10;;;;;;;3.47;1.95;;;-6.10;70.90;;;;;;4959149;28;20050;-71
2022/03/09 01:51:42;;;;;;;7.60;2.25;;;-6.10;73.10;;;;;;4974416;28;20526;-71
2022/03/09 01:54:10;;;;;;;9.43;2.47;;;-6.10;73.70;;;;;;4979777;28;20050;-72
2022/03/09 01:56:39;;;;;;;6.82;2.10;;;-6.00;74.30;;;;;;4989783;28;20459;-71
2022/03/09 01:59:12;;;;;;;4.38;2.10;;;-6.00;74.10;;;;;;4992973;28;20066;-77
2022/03/09 02:01:40;;;;;;;3.72;1.77;;;-6.00;73.90;;;;;;4976885;28;20141;-78
2022/03/09 02:04:08;;;;;;;3.60;1.70;;;-6.00;72.50;;;;;;5003894;28;20057;-77
2022/03/09 02:06:39;;;;;;;6.35;2.15;;;-6.10;73.20;;;;;;4993826;28;20055;-78
2022/03/09 02:11:55;;;;;;;5.75;2.38;;;-6.10;72.10;;;;;;4992323;28;20550;-78
2022/03/09 02:14:35;;;;;;;3.97;2.65;;;-6.10;72.30;;;;;;4958532;28;20056;-77
2022/03/09 02:17:05;;;;;;;4.88;2.10;;;-6.20;73.80;;;;;;4992818;28;20042;-77
2022/03/09 02:19:33;;;;;;;3.10;1.85;;;-6.20;74.30;;;;;;4974455;28;20053;-77
2022/03/09 02:22:07;;;;;;;5.32;2.42;;;-6.20;75.00;;;;;;4993031;28;20047;-77
2022/03/09 02:24:36;;;;;;;4.70;1.92;;;-6.20;74.50;;;;;;4973984;28;20061;-78
2022/03/09 02:27:04;;;;;;;7.07;3.42;;;-6.10;74.80;;;;;;4991932;28;20077;-78
2022/03/09 02:29:31;;;;;;;6.88;2.47;;;-6.10;74.10;;;;;;4985459;28;20495;-77
2022/03/09 02:32:00;;;;;;;5.43;2.70;;;-6.20;74.30;;;;;;4991236;28;20415;-77
2022/03/09 02:34:29;;;;;;;8.05;2.70;;;-6.20;75.20;;;;;;4974547;28;20436;-72
2022/03/09 02:36:57;;;;;;;5.40;2.50;;;-6.20;76.90;;;;;;4993304;28;20058;-72
2022/03/09 02:39:24;;;;;;;4.22;2.13;;;-6.20;75.80;;;;;;4994461;28;20124;-71
2022/03/09 02:41:53;;;;;;;4.70;2.58;;;-6.30;75.60;;;;;;4991820;28;20085;-71
2022/03/09 02:44:21;;;;;;;3.92;2.30;;;-6.30;75.80;;;;;;4989804;28;20054;-71
2022/03/09 02:46:48;;;;;;;7.95;2.60;;;-6.30;75.60;;;;;;4992858;28;20042;-71
2022/03/09 02:49:16;;;;;;;7.15;2.92;;;-6.30;74.40;;;;;;4991433;28;20061;-72
2022/03/09 02:51:43;;;;;;;7.47;2.42;;;-6.40;74.90;;;;;;4973358;28;20519;-73
2022/03/09 02:54:11;;;;;;;17.33;4.60;;;-6.50;74.70;;;;;;4991684;28;20089;-71
2022/03/09 02:56:39;;;;;;;4.65;2.20;;;-6.50;75.40;;;;;;4973144;28;20046;-71
2022/03/09 02:59:08;;;;;;;6.07;2.65;;;-6.50;74.60;;;;;;4992651;28;20050;-71
2022/03/09 03:01:35;;;;;;;9.18;3.08;;;-6.60;74.90;;;;;;4991013;28;20050;-71
2022/03/09 03:04:06;;;;;;;6.50;2.50;;;-6.60;75.60;;;;;;4988836;28;20050;-70
2022/03/09 03:06:34;;;;;;;6.05;3.15;;;-6.60;76.10;;;;;;4990337;28;20081;-71
2022/03/09 03:09:01;;;;;;;9.60;2.83;;;-6.50;75.50;;;;;;4996838;28;20539;-71
2022/03/09 03:11:29;;;;;;;3.80;2.25;;;-6.50;75.60;;;;;;4990613;28;20046;-72
2022/03/09 03:13:56;;;;;;;7.13;2.65;;;-6.40;76.50;;;;;;4974704;28;20121;-71
2022/03/09 03:16:25;;;;;;;11.02;3.15;;;-6.40;77.90;;;;;;4994910;28;20104;-71
2022/03/09 03:18:52;;;;;;;6.88;2.85;;;-6.40;79.00;;;;;;4990388;28;20046;-70
2022/03/09 03:21:19;;;;;;;5.90;2.92;;;-6.40;77.70;;;;;;4990115;28;20072;-70
2022/03/09 03:23:47;;;;;;;9.13;3.42;;;-6.40;77.20;;;;;;4992727;28;20050;-71
2022/03/09 03:26:14;;;;;;;8.40;4.45;;;-6.40;78.30;;;;;;4974339;28;20046;-71
2022/03/09 03:28:41;;;;;;;5.03;2.97;;;-6.40;77.40;;;;;;4988685;28;20050;-72
2022/03/09 03:31:09;;;;;;;12.88;4.65;;;-6.40;79.10;;;;;;4973268;28;20042;-70
2022/03/09 03:33:38;;;;;;;4.88;2.83;;;-6.30;78.60;;;;;;4990697;28;20047;-70
2022/03/09 03:36:07;;;;;;;13.18;5.53;;;-6.30;79.10;;;;;;4993727;28;20053;-72
2022/03/09 03:38:35;;;;;;;8.98;3.65;;;-6.30;79.20;;;;;;4990963;28;20995;-72
2022/03/09 03:41:02;;;;;;;6.85;3.38;;;-6.30;78.30;;;;;;4990693;28;20046;-71
2022/03/09 03:43:29;;;;;;;5.30;2.63;;;-6.40;79.10;;;;;;4988750;28;20134;-72
2022/03/09 03:45:57;;;;;;;4.07;2.80;;;-6.40;79.60;;;;;;4980838;28;20047;-72
2022/03/09 03:48:25;;;;;;;9.35;2.83;;;-6.30;81.60;;;;;;4991128;28;20050;-72
2022/03/09 03:50:53;;;;;;;6.47;3.03;;;-6.30;80.00;;;;;;4988932;28;20050;-71
2022/03/09 03:53:21;;;;;;;14.15;3.88;;;-6.30;79.60;;;;;;4957000;28;20042;-72
2022/03/09 03:55:48;;;;;;;9.85;2.38;;;-6.40;78.20;;;;;;4984313;28;20077;-71
2022/03/09 03:58:15;;;;;;;10.48;3.50;;;-6.40;77.40;;;;;;4988678;28;20061;-71
2022/03/09 04:00:43;;;;;;;6.65;2.97;;;-6.40;77.40;;;;;;4990800;28;20511;-71
2022/03/09 04:03:10;;;;;;;10.02;2.58;;;-6.40;77.30;;;;;;4986948;28;20045;-76
2022/03/09 04:05:38;;;;;;;12.00;3.28;;;-6.40;77.20;;;;;;5004300;28;20054;-76
2022/03/09 04:08:10;;;;;;;7.00;2.80;;;-6.40;77.30;;;;;;4988994;28;20080;-76
2022/03/09 04:10:37;;;;;;;10.23;3.03;;;-6.40;76.90;;;;;;4988903;28;20057;-75
2022/03/09 04:13:04;;;;;;;16.05;2.85;;;-6.40;78.00;;;;;;4981652;28;20054;-78
2022/03/09 04:15:32;;;;;;;7.75;2.85;;;-6.50;77.00;;;;;;4976026;28;20395;-74
2022/03/09 04:18:01;;;;;;;9.60;2.67;;;-6.60;77.30;;;;;;4989508;28;20034;-79
2022/03/09 04:20:28;;;;;;;19.30;3.33;;;-6.60;77.90;;;;;;4989926;28;20503;-77
2022/03/09 04:22:56;;;;;;;8.90;3.33;;;-6.60;77.60;;;;;;4993825;28;20050;-77
2022/03/09 04:25:26;;;;;;;11.88;3.25;;;-6.60;78.80;;;;;;5002846;28;20174;-75
2022/03/09 04:27:53;;;;;;;10.98;3.15;;;-6.60;80.50;;;;;;4990179;28;20057;-77
2022/03/09 04:30:21;;;;;;;19.75;3.35;;;-6.50;80.40;;;;;;4990226;28;20058;-77
2022/03/09 04:32:49;;;;;;;10.70;2.65;;;-6.50;81.30;;;;;;4993409;28;20049;-77
2022/03/09 04:35:17;;;;;;;11.63;3.85;;;-6.50;83.60;;;;;;4989551;28;20197;-77
2022/03/09 04:37:45;;;;;;;12.40;3.90;;;-6.50;84.30;;;;;;5000093;28;20773;-77
2022/03/09 04:40:16;;;;;;;9.32;3.10;;;-6.50;83.90;;;;;;4971024;28;20042;-76
2022/03/09 04:42:46;;;;;;;9.13;3.08;;;-6.50;82.30;;;;;;4972160;28;20046;-77
2022/03/09 04:45:15;;;;;;;10.07;2.80;;;-6.50;82.50;;;;;;4992220;28;20513;-78
2022/03/09 04:47:42;;;;;;;12.98;3.40;;;-6.60;84.60;;;;;;4979388;28;20455;-76
2022/03/09 04:50:12;;;;;;;23.10;4.55;;;-6.60;84.40;;;;;;4990888;28;20093;-76
2022/03/09 04:52:41;;;;;;;23.58;3.67;;;-6.60;83.60;;;;;;4989278;28;20058;-77
2022/03/09 04:55:09;;;;;;;9.30;3.38;;;-6.60;83.90;;;;;;4989531;28;20046;-77
2022/03/09 04:57:38;;;;;;;12.77;3.22;;;-6.60;82.90;;;;;;4989170;28;20062;-76
2022/03/09 05:00:10;;;;;;;16.10;4.57;;;-6.60;83.60;;;;;;4991794;28;20081;-77
2022/03/09 05:02:39;;;;;;;12.18;3.17;;;-6.70;84.80;;;;;;4983358;28;20061;-71
2022/03/09 05:05:08;;;;;;;15.27;5.35;;;-6.60;86.00;;;;;;4991412;28;20065;-70
2022/03/09 05:07:39;;;;;;;20.50;4.05;;;-6.60;85.60;;;;;;4989853;28;20057;-71
2022/03/09 05:10:08;;;;;;;20.98;4.70;;;-6.60;85.20;;;;;;4993902;28;20157;-73
2022/03/09 05:12:38;;;;;;;10.25;3.65;;;-6.60;86.50;;;;;;4971834;28;20050;-69
2022/03/09 05:15:08;;;;;;;17.67;4.38;;;-6.60;85.70;;;;;;4976484;28;20089;-71
2022/03/09 05:17:41;;;;;;;15.20;3.75;;;-6.60;85.70;;;;;;4970086;28;20058;-70
2022/03/09 05:20:11;;;;;;;11.88;3.97;;;-6.50;84.40;;;;;;4989756;28;20058;-70
2022/03/09 05:22:39;;;;;;;17.50;4.55;;;-6.60;83.20;;;;;;4989202;28;20426;-70
2022/03/09 05:25:07;;;;;;;23.25;6.00;;;-6.60;82.30;;;;;;4988155;28;20499;-71
2022/03/09 05:27:35;;;;;;;19.40;3.58;;;-6.50;82.00;;;;;;4987609;28;20078;-71
2022/03/09 05:30:05;;;;;;;21.05;3.85;;;-6.50;81.90;;;;;;4977662;28;20058;-70
2022/03/09 05:32:34;;;;;;;11.50;3.95;;;-6.50;80.30;;;;;;4967763;28;20430;-70
2022/03/09 05:35:02;;;;;;;16.45;4.63;;;-6.60;78.80;;;;;;4986047;28;20620;-71
2022/03/09 05:37:36;;;;;;;13.55;4.05;;;-6.80;78.90;;;;;;4974524;28;20130;-69
2022/03/09 05:40:05;;;;;;;14.75;3.88;;;-6.90;80.60;;;;;;4989396;28;20058;-69
2022/03/09 05:42:34;;;;;;;14.30;3.75;;;-7.00;81.80;;;;;;5000493;28;20140;-69
2022/03/09 05:45:02;;;;;;;11.05;3.67;;;-7.10;81.50;;;;;;4999958;28;20052;-71
2022/03/09 05:47:30;;;;;;;13.30;4.28;;;-7.20;81.70;;;;;;5006624;28;20054;-69
2022/03/09 05:49:59;;;;;;;24.83;4.70;;;-7.30;81.80;;;;;;5006395;28;20507;-75
2022/03/09 05:52:27;;;;;;;11.18;3.55;;;-7.30;82.30;;;;;;5002840;28;20133;-75
2022/03/09 05:54:56;;;;;;;18.38;3.33;;;-7.40;84.00;;;;;;4998852;28;20060;-71
2022/03/09 05:57:24;;;;;;;15.30;4.82;;;-7.40;84.40;;;;;;5010513;28;20061;-69
2022/03/09 05:59:52;;;;;;;13.55;3.70;;;-7.40;87.00;;;;;;5012755;28;20112;-68
2022/03/09 06:02:19;;;;;;;39.63;4.07;;;-7.40;90.30;;;;;;5008178;28;20528;-70
2022/03/09 06:04:47;;;;;;;38.65;4.53;;;-7.30;88.60;;;;;;5008484;28;20065;-72
2022/03/09 06:07:16;;;;;;;13.77;4.13;;;-7.40;86.70;;;;;;5005639;28;20132;-72
2022/03/09 06:09:46;;;;;;;10.77;4.57;;;-7.40;90.00;;;;;;4974440;28;20058;-78
2022/03/09 06:12:17;;;;;;;16.10;3.72;;;-7.40;89.50;;;;;;4981524;28;20050;-74
2022/03/09 06:14:47;;;;;;;13.82;3.55;;;-7.30;90.10;;;;;;4982471;28;20076;-75
2022/03/09 06:17:14;;;;;;;8.15;2.75;;;-7.30;89.10;;;;;;4990321;28;20522;-76
2022/03/09 06:19:42;;;;;;;7.47;3.58;;;-7.20;88.00;;;;;;4992404;28;20050;-76
2022/03/09 06:22:09;;;;;;;10.18;3.05;;;-7.20;85.50;;;;;;4995888;28;20132;-77
2022/03/09 06:24:38;;;;;;;14.23;3.88;;;-7.20;85.00;;;;;;5001929;28;20264;-79
2022/03/09 06:27:05;;;;;;;10.73;3.58;;;-7.20;85.30;;;;;;5000444;28;20162;-78
2022/03/09 06:29:33;;;;;;;12.13;3.05;;;-7.20;83.90;;;;;;5000240;28;20498;-77
2022/03/09 06:32:01;;;;;;;13.50;3.92;;;-7.10;84.20;;;;;;4993770;28;20049;-77
2022/03/09 06:34:29;;;;;;;10.40;4.03;;;-7.10;84.60;;;;;;4997858;28;20113;-77
2022/03/09 06:36:56;;;;;;;6.65;3.22;;;-7.00;84.00;;;;;;4997294;28;20065;-76
2022/03/09 06:39:25;;;;;;;11.73;3.30;;;-7.00;82.60;;;;;;4995725;28;20112;-76
2022/03/09 06:41:54;;;;;;;16.23;3.25;;;-7.00;81.20;;;;;;4991257;28;20046;-76
2022/03/09 06:44:22;;;;;;;11.10;4.75;;;-7.00;83.20;;;;;;4998984;28;20561;-76
2022/03/09 06:46:50;;;;;;;17.42;4.40;;;-7.00;82.30;;;;;;4986475;28;20054;-77
2022/03/09 06:49:17;;;;;;;9.98;3.25;;;-7.00;81.70;;;;;;4999880;28;20066;-77
2022/03/09 06:51:45;;;;;;;13.15;3.13;;;-6.90;81.70;;;;;;4999645;28;20132;-77
2022/03/09 06:54:13;;;;;;;19.08;4.85;;;-6.90;80.90;;;;;;4991830;28;20066;-78
2022/03/09 06:56:40;;;;;;;14.70;3.85;;;-6.80;81.20;;;;;;4996913;28;20079;-77
2022/03/09 06:59:09;;;;;;;13.65;3.28;;;-6.70;81.00;;;;;;4966420;28;20038;-77
2022/03/09 07:01:39;;;;;;;8.60;3.40;;;-6.70;81.50;;;;;;4974792;28;20420;-76
2022/03/09 07:04:08;;;;;;;22.83;4.07;;;-6.60;81.30;;;;;;4986579;28;20046;-76
2022/03/09 07:06:37;;;;;;;17.88;3.97;;;-6.60;82.30;;;;;;4991315;28;20050;-77
2022/03/09 07:09:05;;;;;;;13.98;3.60;;;-6.50;82.00;;;;;;4988182;28;20058;-76
2022/03/09 07:11:32;;;;;;;10.05;3.80;;;-6.40;82.50;;;;;;4989782;28;20042;-76
2022/03/09 07:14:00;;;;;;;9.48;4.20;;;-5.90;79.70;;;;;;5002856;28;20146;-77
2022/03/09 07:16:29;;;;;;;12.50;4.38;;;-4.50;78.20;;;;;;4993442;28;20047;-78
2022/03/09 07:18:56;;;;;;;16.65;5.00;;;-3.00;72.90;;;;;;4975372;28;20046;-77
2022/03/09 07:21:24;;;;;;;10.20;3.90;;;-1.60;66.50;;;;;;4997753;28;20523;-78
2022/03/09 07:23:51;;;;;;;17.95;4.70;;;-0.20;61.80;;;;;;4997874;28;20068;-77
2022/03/09 07:26:19;;;;;;;25.38;5.82;;;0.80;57.80;;;;;;4996166;28;20541;-77
2022/03/09 07:28:46;;;;;;;16.02;5.00;;;1.60;55.60;;;;;;4987107;28;20626;-79
2022/03/09 07:31:15;;;;;;;25.45;5.95;;;2.30;53.80;;;;;;4957832;28;20258;-77
2022/03/09 07:33:45;;;;;;;23.48;5.10;;;2.80;52.10;;;;;;4994599;28;20049;-76
2022/03/09 07:36:15;;;;;;;22.13;5.15;;;3.40;50.90;;;;;;4997256;28;20057;-71
2022/03/09 07:38:47;;;;;;;17.75;5.10;;;4.00;50.10;;;;;;4999577;28;20132;-72
2022/03/09 07:41:16;;;;;;;17.13;5.68;;;4.50;48.50;;;;;;5000379;28;20054;-72
2022/03/09 07:43:45;;;;;;;15.75;5.40;;;4.70;47.30;;;;;;4999075;28;20053;-72
2022/03/09 07:46:13;;;;;;;22.25;5.53;;;5.00;45.70;;;;;;4998966;28;20057;-72
2022/03/09 07:48:42;;;;;;;19.02;5.75;;;5.00;45.50;;;;;;4998222;28;20050;-72
2022/03/09 07:51:11;;;;;;;27.33;5.75;;;4.80;45.90;;;;;;5001700;28;20426;-71
2022/03/09 07:53:42;;;;;;;13.32;4.93;;;4.60;45.90;;;;;;4996237;28;20054;-70
2022/03/09 07:56:11;;;;;;;21.65;4.93;;;3.80;46.10;;;;;;4993585;28;20050;-71
2022/03/09 07:58:40;;;;;;;18.27;6.30;;;3.20;46.70;;;;;;4998119;28;20498;-71
2022/03/09 08:01:08;;;;;;;32.13;6.85;;;3.10;47.80;;;;;;4979970;28;20060;-70
2022/03/09 08:03:39;;;;;;;18.33;6.40;;;3.20;48.10;;;;;;4991674;28;20050;-71
2022/03/09 08:06:11;;;;;;;23.20;5.60;;;3.20;47.70;;;;;;4995855;28;20050;-70
2022/03/09 08:08:39;;;;;;;13.93;4.75;;;3.40;47.30;;;;;;4988403;28;20141;-70
2022/03/09 08:11:07;;;;;;;15.55;4.55;;;3.60;46.70;;;;;;4989907;28;20139;-71
2022/03/09 08:13:35;;;;;;;12.07;4.72;;;3.90;46.10;;;;;;4986056;28;20080;-70
2022/03/09 08:16:03;;;;;;;10.55;3.92;;;4.40;46.60;;;;;;4990570;28;20149;-71
2022/03/09 08:18:31;;;;;;;10.07;3.83;;;4.80;45.40;;;;;;4970523;28;20054;-72
2022/03/09 08:20:59;;;;;;;13.90;4.97;;;5.60;43.80;;;;;;4987797;28;20124;-77
2022/03/09 08:23:29;;;;;;;16.25;4.10;;;6.30;43.90;;;;;;4985182;28;20035;-76
2022/03/09 08:25:58;;;;;;;11.63;4.55;;;6.70;41.40;;;;;;4988311;28;20050;-78
2022/03/09 08:28:25;;;;;;;16.85;3.75;;;7.00;41.50;;;;;;4971529;28;20050;-77
2022/03/09 08:30:54;;;;;;;10.15;3.22;;;7.60;40.80;;;;;;4987415;28;20530;-78
2022/03/09 08:33:22;;;;;;;10.10;3.15;;;8.20;38.40;;;;;;4988161;28;20575;-77
2022/03/09 08:35:52;;;;;;;12.20;3.17;;;8.60;37.10;;;;;;4989380;28;20077;-78
2022/03/09 08:38:20;;;;;;;20.55;4.90;;;8.40;37.60;;;;;;4938292;28;20050;-72
2022/03/09 08:40:50;;;;;;;10.27;3.92;;;8.60;37.60;;;;;;4989256;28;20109;-69
2022/03/09 08:43:18;;;;;;;10.55;3.65;;;8.40;37.30;;;;;;5001211;28;20053;-70
2022/03/09 08:45:45;;;;;;;13.55;5.03;;;9.10;36.50;;;;;;4994944;28;20071;-71
2022/03/09 08:48:13;;;;;;;4.57;3.70;;;9.30;35.70;;;;;;4985043;28;20580;-71
2022/03/09 08:50:41;;;;;;;13.75;4.35;;;9.50;36.30;;;;;;4983090;28;20561;-71
2022/03/09 08:53:10;;;;;;;10.82;3.05;;;9.80;36.60;;;;;;4998427;28;20061;-72
2022/03/09 08:55:37;;;;;;;11.73;3.13;;;10.10;35.80;;;;;;4994893;28;20104;-71
2022/03/09 08:58:07;;;;;;;10.38;3.17;;;10.30;35.30;;;;;;4979797;28;20121;-70
2022/03/09 09:00:35;;;;;;;12.88;3.53;;;10.60;35.90;;;;;;4990418;28;20137;-71
2022/03/09 09:03:02;;;;;;;15.20;3.60;;;11.00;34.40;;;;;;4986599;28;20154;-70
2022/03/09 09:05:32;;;;;;;12.63;3.20;;;11.20;34.00;;;;;;4983104;28;20129;-70
2022/03/09 09:08:00;;;;;;;11.18;3.20;;;10.70;34.00;;;;;;4978942;28;20046;-70
2022/03/09 09:10:27;;;;;;;9.68;2.92;;;10.80;34.60;;;;;;4985117;28;20038;-72
2022/03/09 09:12:57;;;;;;;9.52;3.20;;;10.90;34.10;;;;;;4985057;28;20054;-74
2022/03/09 09:15:28;;;;;;;7.43;2.83;;;10.80;35.10;;;;;;4989137;28;20050;-71
2022/03/09 09:18:01;;;;;;;9.30;2.80;;;11.20;33.20;;;;;;4987848;28;20046;-71
2022/03/09 09:20:29;;;;;;;12.20;2.72;;;10.70;33.20;;;;;;4986921;28;20058;-71
2022/03/09 09:22:57;;;;;;;7.85;2.50;;;10.60;33.80;;;;;;4977701;28;20546;-72
2022/03/09 09:25:27;;;;;;;8.90;3.10;;;11.20;33.90;;;;;;4981270;28;20409;-72
2022/03/09 09:27:56;;;;;;;10.40;2.85;;;11.40;33.70;;;;;;4997611;28;20046;-71
2022/03/09 09:30:27;;;;;;;7.30;3.33;;;11.70;32.50;;;;;;4989002;28;20403;-72
2022/03/09 09:32:54;;;;;;;9.00;2.78;;;11.70;32.40;;;;;;5000417;28;20069;-71
2022/03/09 09:35:23;;;;;;;6.63;2.88;;;11.80;32.60;;;;;;5004116;28;20047;-71
2022/03/09 09:37:51;;;;;;;12.50;3.42;;;11.70;32.00;;;;;;4985667;28;20159;-71
2022/03/09 09:40:19;;;;;;;7.80;3.20;;;11.90;31.20;;;;;;4987795;28;20058;-69
2022/03/09 09:42:47;;;;;;;11.15;3.35;;;11.60;31.20;;;;;;4991350;28;20059;-72
2022/03/09 09:45:14;;;;;;;10.40;3.92;;;11.40;32.10;;;;;;4986077;28;20133;-72
2022/03/09 09:47:45;;;;;;;8.00;2.85;;;11.50;34.00;;;;;;4979908;28;20264;-72
2022/03/09 09:50:14;;;;;;;9.13;2.80;;;11.70;33.00;;;;;;4983524;28;20137;-73
2022/03/09 09:52:42;;;;;;;5.65;2.90;;;11.50;32.80;;;;;;4991634;28;20068;-70
2022/03/09 09:55:10;;;;;;;6.03;3.05;;;10.60;33.40;;;;;;4975535;28;20058;-70
2022/03/09 09:57:39;;;;;;;8.30;3.30;;;9.90;33.70;;;;;;5000016;28;20058;-70
2022/03/09 10:00:09;;;;;;;10.40;3.88;;;9.50;33.80;;;;;;4998934;28;20213;-70
2022/03/09 10:02:44;;;;;;;6.25;2.70;;;8.90;33.80;;;;;;5006986;28;20581;-70
2022/03/09 10:05:14;;;;;;;9.73;3.10;;;8.80;33.90;;;;;;4978731;28;20112;-71
2022/03/09 10:08:17;;;;;;;11.38;3.13;;;8.10;34.10;;;;;;5007960;28;20049;-71
2022/03/09 10:10:56;;;;;;;6.43;2.75;;;7.50;35.90;;;;;;5012058;28;20054;-71
2022/03/09 10:13:26;;;;;;;12.07;2.95;;;7.70;37.40;;;;;;5002358;28;20257;-69
2022/03/09 10:16:15;;;;;;;5.35;2.35;;;8.50;37.40;;;;;;5011291;28;20514;-76
2022/03/09 10:18:51;;;;;;;7.18;2.88;;;9.40;35.80;;;;;;5008205;28;20458;-77
2022/03/09 10:21:20;;;;;;;9.25;2.72;;;10.00;34.20;;;;;;4975667;28;20430;-76
2022/03/09 10:23:57;;;;;;;9.32;2.03;;;10.90;34.00;;;;;;4997873;28;20045;-76
2022/03/09 10:26:26;;;;;;;8.23;2.80;;;10.50;32.50;;;;;;5008555;28;20054;-75
2022/03/09 10:28:59;;;;;;;7.22;2.67;;;10.70;33.20;;;;;;4990430;28;20049;-75
2022/03/09 10:31:36;;;;;;;8.20;2.35;;;10.90;33.40;;;;;;4981229;28;20116;-76
2022/03/09 10:34:12;;;;;;;9.38;2.08;;;11.00;34.00;;;;;;4994186;28;20046;-75
2022/03/09 10:36:55;;;;;;;7.47;2.38;;;10.80;33.40;;;;;;4999569;28;20047;-76
2022/03/09 10:39:25;;;;;;;9.68;2.40;;;11.40;33.20;;;;;;4980822;28;20042;-77
2022/03/09 10:41:54;;;;;;;5.68;2.15;;;12.20;33.00;;;;;;4999812;28;20528;-71
2022/03/09 10:44:42;;;;;;;4.47;2.17;;;13.10;32.60;;;;;;4996644;28;20038;-71
2022/03/09 10:47:10;;;;;;;5.35;2.60;;;13.00;30.30;;;;;;4970885;28;20051;-71
2022/03/09 10:49:38;;;;;;;3.15;1.90;;;12.80;30.30;;;;;;4998534;28;20046;-71
2022/03/09 10:52:07;;;;;;;11.10;2.58;;;12.30;30.40;;;;;;5003410;28;20811;-75
2022/03/09 10:54:35;;;;;;;5.43;2.17;;;12.00;30.90;;;;;;5000805;28;20077;-76
2022/03/09 10:57:09;;;;;;;6.80;2.35;;;11.50;31.40;;;;;;4981913;28;20552;-75
2022/03/09 10:59:47;;;;;;;4.03;2.15;;;10.90;31.80;;;;;;4998977;28;20465;-75
2022/03/09 11:02:19;;;;;;;5.40;1.98;;;11.00;32.00;;;;;;5000436;28;21114;-75
2022/03/09 11:05:09;;;;;;;6.78;2.10;;;11.30;32.50;;;;;;4973867;28;20148;-75
2022/03/09 11:07:38;;;;;;;6.82;1.75;;;11.90;33.20;;;;;;4988254;28;20511;-77
2022/03/09 11:10:08;;;;;;;6.38;1.98;;;12.50;31.80;;;;;;4969663;28;20042;-73
2022/03/09 11:12:36;;;;;;;5.45;2.45;;;12.70;30.70;;;;;;4986901;28;20050;-77
2022/03/09 11:15:05;;;;;;;8.45;2.00;;;13.00;30.80;;;;;;4987910;28;20054;-77
2022/03/09 11:17:34;;;;;;;3.03;1.95;;;12.30;30.00;;;;;;4987154;28;20537;-75
2022/03/09 11:20:04;;;;;;;4.65;2.03;;;11.30;30.00;;;;;;4987301;28;20074;-75
2022/03/09 11:22:34;;;;;;;4.70;1.90;;;10.30;31.50;;;;;;4971576;28;20050;-75
2022/03/09 11:25:01;;;;;;;6.85;2.45;;;10.00;32.70;;;;;;4989918;28;20042;-75
2022/03/09 11:27:32;;;;;;;7.30;1.98;;;10.10;33.30;;;;;;4985373;28;20144;-76
2022/03/09 11:30:24;;;;;;;3.80;2.25;;;10.50;34.00;;;;;;4993796;28;20054;-77
2022/03/09 11:32:54;;;;;;;8.35;2.58;;;10.80;35.20;;;;;;4987403;28;20050;-75
2022/03/09 11:35:39;;;;;;;10.20;2.45;;;11.10;32.90;;;;;;5000122;28;20494;-77
2022/03/09 11:38:43;;;;;;;4.13;1.80;;;11.50;32.90;;;;;;4980784;28;20614;-76
2022/03/09 11:41:18;;;;;;;;;;;12.50;32.70;;;;;;5003788;28;20054;-77
2022/03/09 11:43:45;;;;;;;3.97;1.92;;;13.40;32.80;;;;;;5008290;28;19933;-79
2022/03/09 11:46:13;;;;;;;4.35;2.38;;;13.70;30.60;;;;;;4994052;28;20060;-78
2022/03/09 11:48:52;;;;;;;7.65;2.10;;;14.00;29.30;;;;;;5002390;28;20065;-79
2022/03/09 11:51:20;;;;;;;10.85;2.60;;;13.70;29.10;;;;;;4991553;28;20058;-79
2022/03/09 11:53:53;;;;;;;10.70;2.22;;;13.70;29.70;;;;;;4972672;28;20046;-78
2022/03/09 11:56:38;;;;;;;4.82;2.13;;;14.10;29.90;;;;;;4996030;28;20088;-78
2022/03/09 11:59:22;;;;;;;7.70;2.30;;;13.60;30.00;;;;;;5007019;28;20124;-80
2022/03/09 12:02:18;;;;;;;7.50;1.95;;;13.10;29.60;;;;;;4991372;28;20050;-78
2022/03/09 12:04:52;;;;;;;6.57;2.45;;;12.90;30.00;;;;;;4974594;28;20463;-79
2022/03/09 12:07:48;;;;;;;3.35;2.08;;;12.20;30.00;;;;;;4990611;28;20115;-79
2022/03/09 12:10:21;;;;;;;6.97;2.40;;;11.90;30.20;;;;;;5007578;28;20049;-77
2022/03/09 12:13:20;;;;;;;;;;;12.10;30.80;;;;;;5009212;28;20613;-78
2022/03/09 12:16:22;;;;;;;4.20;2.38;;;12.50;30.30;;;;;;4998933;28;19925;-80
2022/03/09 12:19:07;;;;;;;6.53;2.22;;;12.00;31.50;;;;;;4994641;28;20046;-80
2022/03/09 12:22:08;;;;;;;3.80;2.72;;;12.40;30.10;;;;;;5005420;28;20061;-80
2022/03/09 12:24:39;;;;;;;6.88;2.55;;;13.40;29.40;;;;;;4916376;29;20048;-79
2022/03/09 12:27:29;;;;;;;9.20;2.72;;;14.10;29.50;;;;;;4928460;29;20051;-79
2022/03/09 12:30:00;;;;;;;6.00;2.45;;;14.80;29.60;;;;;;4975883;28;20422;-79
2022/03/09 12:32:41;;;;;;;6.78;3.03;;;15.00;29.50;;;;;;4995200;28;20509;-79
2022/03/09 12:35:09;;;;;;;6.78;2.50;;;15.40;28.90;;;;;;5001936;28;20053;-79
2022/03/09 12:37:36;;;;;;;8.52;2.90;;;14.70;28.10;;;;;;4987259;28;20050;-77
2022/03/09 12:40:05;;;;;;;8.02;2.38;;;13.80;28.90;;;;;;4955181;28;20050;-78
2022/03/09 12:42:40;;;;;;;7.97;2.58;;;12.80;29.50;;;;;;4968015;28;20052;-81
2022/03/09 12:45:09;;;;;;;15.73;2.47;;;11.80;30.20;;;;;;4998459;28;20065;-78
2022/03/09 12:47:38;;;;;;;6.38;2.00;;;11.10;31.50;;;;;;4998613;28;20051;-77
2022/03/09 12:50:08;;;;;;;5.95;2.67;;;10.90;32.60;;;;;;4996704;28;20515;-76
2022/03/09 12:52:46;;;;;;;5.35;2.28;;;10.30;31.70;;;;;;4995346;28;20525;-76
2022/03/09 12:55:18;;;;;;;6.75;2.22;;;10.20;32.70;;;;;;5000586;28;20077;-76
2022/03/09 12:57:58;;;;;;;6.85;2.58;;;10.70;32.40;;;;;;4989615;28;20046;-76
2022/03/09 13:00:27;;;;;;;3.90;1.50;;;10.30;33.40;;;;;;4995732;28;20057;-77